sensor_id;sensor_type;location;lat;lon;timestamp;P1;durP1;ratioP1;P2;durP2;ratioP2
53618;SDS011;39505;53.040;18.488;2023-02-28T00:00:13;90.85;;;33.08;;
53618;SDS011;39505;53.040;18.488;2023-02-28T00:00:46;80.05;;;32.22;;
53618;SDS011;39505;53.040;18.488;2023-02-28T00:01:03;83.25;;;31.88;;
53618;SDS011;39505;53.040;18.488;2023-02-28T00:01:16;85.47;;;32.50;;
53618;SDS011;39505;53.040;18.488;2023-02-28T00:01:29;86.75;;;32.70;;
53618;SDS011;39505;53.040;18.488;2023-02-28T00:01:44;86.53;;;32.45;;
53618;SDS011;39505;53.040;18.488;2023-02-28T00:01:56;86.13;;;32.58;;
53618;SDS011;39505;53.040;18.488;2023-02-28T00:02:09;88.40;;;32.75;;
53618;SDS011;39505;53.040;18.488;2023-02-28T00:02:22;87.03;;;32.58;;
53618;SDS011;39505;53.040;18.488;2023-02-28T00:02:35;81.53;;;32.25;;
53618;SDS011;39505;53.040;18.488;2023-02-28T00:02:48;81.05;;;32.22;;
53618;SDS011;39505;53.040;18.488;2023-02-28T00:03:01;85.88;;;33.17;;
53618;SDS011;39505;53.040;18.488;2023-02-28T00:03:14;86.50;;;32.97;;
53618;SDS011;39505;53.040;18.488;2023-02-28T00:03:27;86.88;;;32.45;;
53618;SDS011;39505;53.040;18.488;2023-02-28T00:03:40;89.72;;;32.67;;
53618;SDS011;39505;53.040;18.488;2023-02-28T00:03:53;94.18;;;33.25;;
53618;SDS011;39505;53.040;18.488;2023-02-28T00:04:07;92.82;;;33.75;;
53618;SDS011;39505;53.040;18.488;2023-02-28T00:04:21;90.63;;;33.40;;
53618;SDS011;39505;53.040;18.488;2023-02-28T00:04:34;86.85;;;33.08;;
53618;SDS011;39505;53.040;18.488;2023-02-28T00:04:47;84.15;;;33.35;;
53618;SDS011;39505;53.040;18.488;2023-02-28T00:05:05;83.63;;;33.35;;
53618;SDS011;39505;53.040;18.488;2023-02-28T00:05:19;82.53;;;33.25;;
53618;SDS011;39505;53.040;18.488;2023-02-28T00:05:33;87.45;;;33.38;;
53618;SDS011;39505;53.040;18.488;2023-02-28T00:05:46;89.95;;;33.65;;
53618;SDS011;39505;53.040;18.488;2023-02-28T00:05:59;86.28;;;33.53;;
53618;SDS011;39505;53.040;18.488;2023-02-28T00:06:12;83.35;;;33.20;;
53618;SDS011;39505;53.040;18.488;2023-02-28T00:06:26;87.22;;;33.22;;
53618;SDS011;39505;53.040;18.488;2023-02-28T00:06:39;88.43;;;32.72;;
53618;SDS011;39505;53.040;18.488;2023-02-28T00:06:52;84.85;;;32.40;;
53618;SDS011;39505;53.040;18.488;2023-02-28T00:07:05;84.30;;;32.25;;
53618;SDS011;39505;53.040;18.488;2023-02-28T00:07:17;84.07;;;32.38;;
53618;SDS011;39505;53.040;18.488;2023-02-28T00:07:30;87.85;;;33.40;;
53618;SDS011;39505;53.040;18.488;2023-02-28T00:07:44;91.40;;;34.38;;
53618;SDS011;39505;53.040;18.488;2023-02-28T00:07:58;91.45;;;33.90;;
53618;SDS011;39505;53.040;18.488;2023-02-28T00:08:11;94.45;;;34.40;;
53618;SDS011;39505;53.040;18.488;2023-02-28T00:08:25;93.75;;;34.47;;
53618;SDS011;39505;53.040;18.488;2023-02-28T00:08:39;89.65;;;34.05;;
53618;SDS011;39505;53.040;18.488;2023-02-28T00:08:52;90.45;;;33.92;;
53618;SDS011;39505;53.040;18.488;2023-02-28T00:09:06;86.55;;;33.22;;
53618;SDS011;39505;53.040;18.488;2023-02-28T00:09:18;86.22;;;34.00;;
53618;SDS011;39505;53.040;18.488;2023-02-28T00:09:31;95.93;;;35.17;;
53618;SDS011;39505;53.040;18.488;2023-02-28T00:09:44;98.32;;;35.38;;
53618;SDS011;39505;53.040;18.488;2023-02-28T00:09:57;93.03;;;34.55;;
53618;SDS011;39505;53.040;18.488;2023-02-28T00:10:10;94.75;;;35.17;;
53618;SDS011;39505;53.040;18.488;2023-02-28T00:10:25;101.18;;;36.28;;
53618;SDS011;39505;53.040;18.488;2023-02-28T00:10:40;101.93;;;35.83;;
53618;SDS011;39505;53.040;18.488;2023-02-28T00:10:53;98.00;;;35.88;;
53618;SDS011;39505;53.040;18.488;2023-02-28T00:11:07;95.63;;;36.22;;
53618;SDS011;39505;53.040;18.488;2023-02-28T00:11:21;97.35;;;35.83;;
53618;SDS011;39505;53.040;18.488;2023-02-28T00:11:34;95.72;;;35.53;;
53618;SDS011;39505;53.040;18.488;2023-02-28T00:11:50;95.40;;;36.00;;
53618;SDS011;39505;53.040;18.488;2023-02-28T00:12:04;99.60;;;36.25;;
53618;SDS011;39505;53.040;18.488;2023-02-28T00:12:22;94.95;;;35.42;;
53618;SDS011;39505;53.040;18.488;2023-02-28T00:12:35;95.60;;;34.75;;
53618;SDS011;39505;53.040;18.488;2023-02-28T00:12:48;96.60;;;34.63;;
53618;SDS011;39505;53.040;18.488;2023-02-28T00:13:02;99.85;;;35.70;;
53618;SDS011;39505;53.040;18.488;2023-02-28T00:13:16;99.40;;;36.40;;
53618;SDS011;39505;53.040;18.488;2023-02-28T00:13:30;95.97;;;36.00;;
53618;SDS011;39505;53.040;18.488;2023-02-28T00:13:43;95.20;;;35.95;;
53618;SDS011;39505;53.040;18.488;2023-02-28T00:13:58;98.97;;;35.67;;
53618;SDS011;39505;53.040;18.488;2023-02-28T00:14:11;98.68;;;35.72;;
53618;SDS011;39505;53.040;18.488;2023-02-28T00:14:24;98.18;;;36.10;;
53618;SDS011;39505;53.040;18.488;2023-02-28T00:14:36;98.10;;;35.38;;
53618;SDS011;39505;53.040;18.488;2023-02-28T00:14:49;95.90;;;35.30;;
53618;SDS011;39505;53.040;18.488;2023-02-28T00:15:05;95.50;;;35.17;;
53618;SDS011;39505;53.040;18.488;2023-02-28T00:15:18;95.90;;;35.22;;
53618;SDS011;39505;53.040;18.488;2023-02-28T00:15:32;97.38;;;35.78;;
53618;SDS011;39505;53.040;18.488;2023-02-28T00:15:45;98.38;;;35.13;;
53618;SDS011;39505;53.040;18.488;2023-02-28T00:15:59;103.15;;;35.10;;
53618;SDS011;39505;53.040;18.488;2023-02-28T00:16:13;101.60;;;35.10;;
53618;SDS011;39505;53.040;18.488;2023-02-28T00:16:27;103.28;;;35.28;;
53618;SDS011;39505;53.040;18.488;2023-02-28T00:16:40;105.47;;;35.83;;
53618;SDS011;39505;53.040;18.488;2023-02-28T00:16:53;102.70;;;35.72;;
53618;SDS011;39505;53.040;18.488;2023-02-28T00:17:06;96.28;;;35.08;;
53618;SDS011;39505;53.040;18.488;2023-02-28T00:17:19;94.43;;;34.63;;
53618;SDS011;39505;53.040;18.488;2023-02-28T00:17:33;95.60;;;35.75;;
53618;SDS011;39505;53.040;18.488;2023-02-28T00:17:45;98.57;;;35.78;;
53618;SDS011;39505;53.040;18.488;2023-02-28T00:17:59;97.50;;;34.83;;
53618;SDS011;39505;53.040;18.488;2023-02-28T00:18:12;93.72;;;33.97;;
53618;SDS011;39505;53.040;18.488;2023-02-28T00:18:25;94.00;;;34.33;;
53618;SDS011;39505;53.040;18.488;2023-02-28T00:18:38;94.22;;;35.20;;
53618;SDS011;39505;53.040;18.488;2023-02-28T00:18:51;96.20;;;34.72;;
53618;SDS011;39505;53.040;18.488;2023-02-28T00:19:04;98.40;;;34.40;;
53618;SDS011;39505;53.040;18.488;2023-02-28T00:19:17;96.32;;;34.17;;
53618;SDS011;39505;53.040;18.488;2023-02-28T00:19:30;91.40;;;34.58;;
53618;SDS011;39505;53.040;18.488;2023-02-28T00:19:43;89.95;;;34.20;;
53618;SDS011;39505;53.040;18.488;2023-02-28T00:19:56;89.20;;;33.20;;
53618;SDS011;39505;53.040;18.488;2023-02-28T00:20:09;91.82;;;32.72;;
53618;SDS011;39505;53.040;18.488;2023-02-28T00:20:23;88.76;;;32.64;;
53618;SDS011;39505;53.040;18.488;2023-02-28T00:20:36;84.82;;;32.67;;
53618;SDS011;39505;53.040;18.488;2023-02-28T00:20:50;84.70;;;32.58;;
53618;SDS011;39505;53.040;18.488;2023-02-28T00:21:03;87.13;;;32.72;;
53618;SDS011;39505;53.040;18.488;2023-02-28T00:21:16;85.10;;;32.38;;
53618;SDS011;39505;53.040;18.488;2023-02-28T00:21:31;81.05;;;32.35;;
53618;SDS011;39505;53.040;18.488;2023-02-28T00:21:43;79.40;;;32.05;;
53618;SDS011;39505;53.040;18.488;2023-02-28T00:21:56;82.72;;;31.98;;
53618;SDS011;39505;53.040;18.488;2023-02-28T00:22:09;88.78;;;32.92;;
53618;SDS011;39505;53.040;18.488;2023-02-28T00:22:23;87.38;;;32.38;;
53618;SDS011;39505;53.040;18.488;2023-02-28T00:22:36;84.22;;;31.92;;
53618;SDS011;39505;53.040;18.488;2023-02-28T00:22:51;83.18;;;32.35;;
53618;SDS011;39505;53.040;18.488;2023-02-28T00:23:05;85.97;;;32.88;;
53618;SDS011;39505;53.040;18.488;2023-02-28T00:23:18;87.90;;;33.20;;
53618;SDS011;39505;53.040;18.488;2023-02-28T00:23:32;85.18;;;31.98;;
53618;SDS011;39505;53.040;18.488;2023-02-28T00:23:45;86.90;;;31.92;;
53618;SDS011;39505;53.040;18.488;2023-02-28T00:23:58;82.75;;;31.70;;
53618;SDS011;39505;53.040;18.488;2023-02-28T00:24:11;83.45;;;31.67;;
53618;SDS011;39505;53.040;18.488;2023-02-28T00:24:24;84.80;;;31.52;;
53618;SDS011;39505;53.040;18.488;2023-02-28T00:24:36;84.82;;;31.52;;
53618;SDS011;39505;53.040;18.488;2023-02-28T00:24:49;86.03;;;31.95;;
53618;SDS011;39505;53.040;18.488;2023-02-28T00:25:02;84.80;;;31.58;;
53618;SDS011;39505;53.040;18.488;2023-02-28T00:25:17;82.63;;;32.00;;
53618;SDS011;39505;53.040;18.488;2023-02-28T00:25:31;83.32;;;32.35;;
53618;SDS011;39505;53.040;18.488;2023-02-28T00:25:44;83.00;;;32.20;;
53618;SDS011;39505;53.040;18.488;2023-02-28T00:25:57;87.20;;;32.25;;
53618;SDS011;39505;53.040;18.488;2023-02-28T00:26:10;87.00;;;32.13;;
53618;SDS011;39505;53.040;18.488;2023-02-28T00:26:23;80.82;;;31.88;;
53618;SDS011;39505;53.040;18.488;2023-02-28T00:26:35;79.25;;;31.58;;
53618;SDS011;39505;53.040;18.488;2023-02-28T00:26:49;79.70;;;31.10;;
53618;SDS011;39505;53.040;18.488;2023-02-28T00:27:03;80.88;;;31.33;;
53618;SDS011;39505;53.040;18.488;2023-02-28T00:27:16;83.25;;;31.83;;
53618;SDS011;39505;53.040;18.488;2023-02-28T00:27:29;83.25;;;31.90;;
53618;SDS011;39505;53.040;18.488;2023-02-28T00:27:42;86.70;;;31.92;;
53618;SDS011;39505;53.040;18.488;2023-02-28T00:27:55;86.75;;;32.33;;
53618;SDS011;39505;53.040;18.488;2023-02-28T00:28:09;83.35;;;31.90;;
53618;SDS011;39505;53.040;18.488;2023-02-28T00:28:21;80.57;;;31.42;;
53618;SDS011;39505;53.040;18.488;2023-02-28T00:28:35;80.97;;;31.55;;
53618;SDS011;39505;53.040;18.488;2023-02-28T00:28:47;84.95;;;32.33;;
53618;SDS011;39505;53.040;18.488;2023-02-28T00:29:00;85.50;;;32.50;;
53618;SDS011;39505;53.040;18.488;2023-02-28T00:29:13;82.30;;;32.10;;
53618;SDS011;39505;53.040;18.488;2023-02-28T00:29:26;84.10;;;32.25;;
53618;SDS011;39505;53.040;18.488;2023-02-28T00:29:38;80.22;;;32.05;;
53618;SDS011;39505;53.040;18.488;2023-02-28T00:29:53;76.70;;;31.50;;
53618;SDS011;39505;53.040;18.488;2023-02-28T00:30:07;81.57;;;31.40;;
53618;SDS011;39505;53.040;18.488;2023-02-28T00:30:22;88.07;;;32.30;;
53618;SDS011;39505;53.040;18.488;2023-02-28T00:30:35;87.55;;;32.42;;
53618;SDS011;39505;53.040;18.488;2023-02-28T00:30:48;87.75;;;32.17;;
53618;SDS011;39505;53.040;18.488;2023-02-28T00:31:00;80.72;;;31.90;;
53618;SDS011;39505;53.040;18.488;2023-02-28T00:31:15;78.55;;;31.88;;
53618;SDS011;39505;53.040;18.488;2023-02-28T00:31:27;78.88;;;31.58;;
53618;SDS011;39505;53.040;18.488;2023-02-28T00:31:41;77.63;;;31.73;;
53618;SDS011;39505;53.040;18.488;2023-02-28T00:31:53;77.32;;;31.48;;
53618;SDS011;39505;53.040;18.488;2023-02-28T00:32:06;82.55;;;31.70;;
53618;SDS011;39505;53.040;18.488;2023-02-28T00:32:19;84.00;;;31.42;;
53618;SDS011;39505;53.040;18.488;2023-02-28T00:32:32;81.85;;;30.65;;
53618;SDS011;39505;53.040;18.488;2023-02-28T00:32:46;77.15;;;30.73;;
53618;SDS011;39505;53.040;18.488;2023-02-28T00:33:00;72.72;;;30.73;;
53618;SDS011;39505;53.040;18.488;2023-02-28T00:33:13;74.75;;;30.48;;
53618;SDS011;39505;53.040;18.488;2023-02-28T00:33:25;81.25;;;31.13;;
53618;SDS011;39505;53.040;18.488;2023-02-28T00:33:38;78.93;;;30.92;;
53618;SDS011;39505;53.040;18.488;2023-02-28T00:33:51;74.72;;;30.40;;
53618;SDS011;39505;53.040;18.488;2023-02-28T00:34:04;72.53;;;29.50;;
53618;SDS011;39505;53.040;18.488;2023-02-28T00:34:16;71.53;;;29.33;;
53618;SDS011;39505;53.040;18.488;2023-02-28T00:34:30;69.63;;;29.42;;
53618;SDS011;39505;53.040;18.488;2023-02-28T00:34:43;72.15;;;29.65;;
53618;SDS011;39505;53.040;18.488;2023-02-28T00:34:56;74.10;;;29.48;;
53618;SDS011;39505;53.040;18.488;2023-02-28T00:35:09;73.95;;;29.25;;
53618;SDS011;39505;53.040;18.488;2023-02-28T00:35:22;74.10;;;29.48;;
53618;SDS011;39505;53.040;18.488;2023-02-28T00:35:35;71.13;;;29.25;;
53618;SDS011;39505;53.040;18.488;2023-02-28T00:35:48;71.20;;;29.55;;
53618;SDS011;39505;53.040;18.488;2023-02-28T00:36:02;73.63;;;29.90;;
53618;SDS011;39505;53.040;18.488;2023-02-28T00:36:20;72.53;;;29.45;;
53618;SDS011;39505;53.040;18.488;2023-02-28T00:36:33;71.72;;;28.90;;
53618;SDS011;39505;53.040;18.488;2023-02-28T00:36:45;68.03;;;28.42;;
53618;SDS011;39505;53.040;18.488;2023-02-28T00:37:01;66.10;;;28.38;;
53618;SDS011;39505;53.040;18.488;2023-02-28T00:37:13;67.05;;;28.45;;
53618;SDS011;39505;53.040;18.488;2023-02-28T00:37:26;69.78;;;28.58;;
53618;SDS011;39505;53.040;18.488;2023-02-28T00:37:39;69.78;;;28.33;;
53618;SDS011;39505;53.040;18.488;2023-02-28T00:37:52;72.60;;;28.58;;
53618;SDS011;39505;53.040;18.488;2023-02-28T00:38:05;69.72;;;28.42;;
53618;SDS011;39505;53.040;18.488;2023-02-28T00:38:18;67.03;;;28.17;;
53618;SDS011;39505;53.040;18.488;2023-02-28T00:38:31;65.70;;;28.15;;
53618;SDS011;39505;53.040;18.488;2023-02-28T00:38:43;64.13;;;27.55;;
53618;SDS011;39505;53.040;18.488;2023-02-28T00:38:56;65.97;;;27.40;;
53618;SDS011;39505;53.040;18.488;2023-02-28T00:39:09;65.82;;;27.42;;
53618;SDS011;39505;53.040;18.488;2023-02-28T00:39:23;68.72;;;28.30;;
53618;SDS011;39505;53.040;18.488;2023-02-28T00:39:36;66.55;;;28.25;;
53618;SDS011;39505;53.040;18.488;2023-02-28T00:39:50;66.97;;;28.35;;
53618;SDS011;39505;53.040;18.488;2023-02-28T00:40:03;69.43;;;28.55;;
53618;SDS011;39505;53.040;18.488;2023-02-28T00:40:17;73.57;;;28.73;;
53618;SDS011;39505;53.040;18.488;2023-02-28T00:40:30;76.40;;;29.00;;
53618;SDS011;39505;53.040;18.488;2023-02-28T00:40:42;73.70;;;28.80;;
53618;SDS011;39505;53.040;18.488;2023-02-28T00:40:56;71.45;;;28.88;;
53618;SDS011;39505;53.040;18.488;2023-02-28T00:41:10;73.70;;;28.70;;
53618;SDS011;39505;53.040;18.488;2023-02-28T00:41:23;69.90;;;27.92;;
53618;SDS011;39505;53.040;18.488;2023-02-28T00:41:36;67.42;;;27.86;;
53618;SDS011;39505;53.040;18.488;2023-02-28T00:41:49;67.50;;;28.20;;
53618;SDS011;39505;53.040;18.488;2023-02-28T00:42:02;67.85;;;27.50;;
53618;SDS011;39505;53.040;18.488;2023-02-28T00:42:18;65.05;;;27.25;;
53618;SDS011;39505;53.040;18.488;2023-02-28T00:42:31;63.47;;;27.17;;
53618;SDS011;39505;53.040;18.488;2023-02-28T00:42:43;67.93;;;27.48;;
53618;SDS011;39505;53.040;18.488;2023-02-28T00:42:57;66.53;;;27.50;;
53618;SDS011;39505;53.040;18.488;2023-02-28T00:43:09;64.38;;;26.98;;
53618;SDS011;39505;53.040;18.488;2023-02-28T00:43:22;67.38;;;27.05;;
53618;SDS011;39505;53.040;18.488;2023-02-28T00:43:37;69.80;;;27.92;;
53618;SDS011;39505;53.040;18.488;2023-02-28T00:43:50;65.38;;;27.63;;
53618;SDS011;39505;53.040;18.488;2023-02-28T00:44:03;62.72;;;27.52;;
53618;SDS011;39505;53.040;18.488;2023-02-28T00:44:16;65.13;;;27.17;;
53618;SDS011;39505;53.040;18.488;2023-02-28T00:44:29;66.57;;;26.75;;
53618;SDS011;39505;53.040;18.488;2023-02-28T00:44:42;69.32;;;27.05;;
53618;SDS011;39505;53.040;18.488;2023-02-28T00:44:56;68.25;;;26.65;;
53618;SDS011;39505;53.040;18.488;2023-02-28T00:45:09;68.97;;;26.80;;
53618;SDS011;39505;53.040;18.488;2023-02-28T00:45:22;70.72;;;27.25;;
53618;SDS011;39505;53.040;18.488;2023-02-28T00:45:34;71.15;;;27.20;;
53618;SDS011;39505;53.040;18.488;2023-02-28T00:45:47;70.32;;;26.92;;
53618;SDS011;39505;53.040;18.488;2023-02-28T00:46:00;68.40;;;27.02;;
53618;SDS011;39505;53.040;18.488;2023-02-28T00:46:13;65.78;;;27.23;;
53618;SDS011;39505;53.040;18.488;2023-02-28T00:46:27;62.72;;;26.52;;
53618;SDS011;39505;53.040;18.488;2023-02-28T00:46:40;63.97;;;26.55;;
53618;SDS011;39505;53.040;18.488;2023-02-28T00:46:53;63.00;;;26.45;;
53618;SDS011;39505;53.040;18.488;2023-02-28T00:47:06;61.75;;;26.10;;
53618;SDS011;39505;53.040;18.488;2023-02-28T00:47:19;67.32;;;27.05;;
53618;SDS011;39505;53.040;18.488;2023-02-28T00:47:32;68.78;;;26.95;;
53618;SDS011;39505;53.040;18.488;2023-02-28T00:47:45;66.07;;;27.20;;
53618;SDS011;39505;53.040;18.488;2023-02-28T00:48:01;67.75;;;27.38;;
53618;SDS011;39505;53.040;18.488;2023-02-28T00:48:14;67.85;;;26.35;;
53618;SDS011;39505;53.040;18.488;2023-02-28T00:48:28;65.43;;;26.15;;
53618;SDS011;39505;53.040;18.488;2023-02-28T00:48:41;65.60;;;26.20;;
53618;SDS011;39505;53.040;18.488;2023-02-28T00:48:53;63.67;;;26.13;;
53618;SDS011;39505;53.040;18.488;2023-02-28T00:49:06;63.88;;;26.88;;
53618;SDS011;39505;53.040;18.488;2023-02-28T00:49:20;65.20;;;26.88;;
53618;SDS011;39505;53.040;18.488;2023-02-28T00:49:33;63.30;;;26.38;;
53618;SDS011;39505;53.040;18.488;2023-02-28T00:49:45;60.90;;;25.50;;
53618;SDS011;39505;53.040;18.488;2023-02-28T00:49:59;63.22;;;25.52;;
53618;SDS011;39505;53.040;18.488;2023-02-28T00:50:12;63.90;;;25.90;;
53618;SDS011;39505;53.040;18.488;2023-02-28T00:50:26;66.43;;;26.88;;
53618;SDS011;39505;53.040;18.488;2023-02-28T00:50:39;65.57;;;26.67;;
53618;SDS011;39505;53.040;18.488;2023-02-28T00:50:51;64.05;;;26.55;;
53618;SDS011;39505;53.040;18.488;2023-02-28T00:51:04;63.60;;;26.30;;
53618;SDS011;39505;53.040;18.488;2023-02-28T00:51:17;63.47;;;26.05;;
53618;SDS011;39505;53.040;18.488;2023-02-28T00:51:30;62.03;;;25.85;;
53618;SDS011;39505;53.040;18.488;2023-02-28T00:51:43;63.70;;;25.83;;
53618;SDS011;39505;53.040;18.488;2023-02-28T00:51:55;61.50;;;25.63;;
53618;SDS011;39505;53.040;18.488;2023-02-28T00:52:09;58.50;;;25.35;;
53618;SDS011;39505;53.040;18.488;2023-02-28T00:52:22;58.80;;;24.75;;
53618;SDS011;39505;53.040;18.488;2023-02-28T00:52:35;62.83;;;25.05;;
53618;SDS011;39505;53.040;18.488;2023-02-28T00:52:48;63.67;;;25.85;;
53618;SDS011;39505;53.040;18.488;2023-02-28T00:53:00;66.53;;;26.25;;
53618;SDS011;39505;53.040;18.488;2023-02-28T00:53:13;66.05;;;26.92;;
53618;SDS011;39505;53.040;18.488;2023-02-28T00:53:26;62.20;;;26.15;;
53618;SDS011;39505;53.040;18.488;2023-02-28T00:53:39;62.28;;;25.65;;
53618;SDS011;39505;53.040;18.488;2023-02-28T00:53:52;63.45;;;24.88;;
53618;SDS011;39505;53.040;18.488;2023-02-28T00:54:06;65.45;;;25.35;;
53618;SDS011;39505;53.040;18.488;2023-02-28T00:54:19;67.03;;;25.88;;
53618;SDS011;39505;53.040;18.488;2023-02-28T00:54:32;63.15;;;25.60;;
53618;SDS011;39505;53.040;18.488;2023-02-28T00:54:45;60.50;;;25.17;;
53618;SDS011;39505;53.040;18.488;2023-02-28T00:54:58;59.38;;;24.63;;
53618;SDS011;39505;53.040;18.488;2023-02-28T00:55:11;59.15;;;24.60;;
53618;SDS011;39505;53.040;18.488;2023-02-28T00:55:24;63.63;;;24.92;;
53618;SDS011;39505;53.040;18.488;2023-02-28T00:55:37;64.95;;;25.25;;
53618;SDS011;39505;53.040;18.488;2023-02-28T00:55:50;65.38;;;25.92;;
53618;SDS011;39505;53.040;18.488;2023-02-28T00:56:03;67.25;;;26.58;;
53618;SDS011;39505;53.040;18.488;2023-02-28T00:56:16;68.38;;;27.08;;
53618;SDS011;39505;53.040;18.488;2023-02-28T00:56:28;61.78;;;25.83;;
53618;SDS011;39505;53.040;18.488;2023-02-28T00:56:41;61.97;;;25.55;;
53618;SDS011;39505;53.040;18.488;2023-02-28T00:56:55;60.72;;;25.60;;
53618;SDS011;39505;53.040;18.488;2023-02-28T00:57:09;61.53;;;25.33;;
53618;SDS011;39505;53.040;18.488;2023-02-28T00:57:22;63.22;;;25.17;;
53618;SDS011;39505;53.040;18.488;2023-02-28T00:57:34;61.67;;;25.83;;
53618;SDS011;39505;53.040;18.488;2023-02-28T00:57:47;63.45;;;25.98;;
53618;SDS011;39505;53.040;18.488;2023-02-28T00:58:00;66.40;;;26.15;;
53618;SDS011;39505;53.040;18.488;2023-02-28T00:58:13;64.68;;;25.77;;
53618;SDS011;39505;53.040;18.488;2023-02-28T00:58:27;59.10;;;25.33;;
53618;SDS011;39505;53.040;18.488;2023-02-28T00:58:39;58.33;;;24.88;;
53618;SDS011;39505;53.040;18.488;2023-02-28T00:58:52;59.96;;;24.74;;
53618;SDS011;39505;53.040;18.488;2023-02-28T00:59:05;57.75;;;25.15;;
53618;SDS011;39505;53.040;18.488;2023-02-28T00:59:18;59.75;;;25.30;;
53618;SDS011;39505;53.040;18.488;2023-02-28T00:59:31;62.08;;;25.48;;
53618;SDS011;39505;53.040;18.488;2023-02-28T00:59:44;61.90;;;24.95;;
53618;SDS011;39505;53.040;18.488;2023-02-28T00:59:58;64.32;;;25.60;;
53618;SDS011;39505;53.040;18.488;2023-02-28T01:00:11;63.45;;;25.95;;
53618;SDS011;39505;53.040;18.488;2023-02-28T01:00:24;62.47;;;25.58;;
53618;SDS011;39505;53.040;18.488;2023-02-28T01:00:37;61.45;;;25.38;;
53618;SDS011;39505;53.040;18.488;2023-02-28T01:00:50;61.78;;;25.38;;
53618;SDS011;39505;53.040;18.488;2023-02-28T01:01:03;64.20;;;25.30;;
53618;SDS011;39505;53.040;18.488;2023-02-28T01:01:18;64.85;;;25.15;;
53618;SDS011;39505;53.040;18.488;2023-02-28T01:01:31;62.50;;;24.83;;
53618;SDS011;39505;53.040;18.488;2023-02-28T01:01:45;63.53;;;25.88;;
53618;SDS011;39505;53.040;18.488;2023-02-28T01:01:58;64.38;;;26.35;;
53618;SDS011;39505;53.040;18.488;2023-02-28T01:02:11;63.50;;;25.92;;
53618;SDS011;39505;53.040;18.488;2023-02-28T01:02:24;62.22;;;25.60;;
53618;SDS011;39505;53.040;18.488;2023-02-28T01:02:37;62.47;;;25.42;;
53618;SDS011;39505;53.040;18.488;2023-02-28T01:02:50;67.47;;;26.33;;
53618;SDS011;39505;53.040;18.488;2023-02-28T01:03:03;65.57;;;25.20;;
53618;SDS011;39505;53.040;18.488;2023-02-28T01:03:16;62.03;;;24.58;;
53618;SDS011;39505;53.040;18.488;2023-02-28T01:03:30;63.25;;;25.20;;
53618;SDS011;39505;53.040;18.488;2023-02-28T01:03:43;62.83;;;25.58;;
53618;SDS011;39505;53.040;18.488;2023-02-28T01:03:55;64.28;;;25.75;;
53618;SDS011;39505;53.040;18.488;2023-02-28T01:04:08;66.68;;;26.33;;
53618;SDS011;39505;53.040;18.488;2023-02-28T01:04:21;65.32;;;26.10;;
53618;SDS011;39505;53.040;18.488;2023-02-28T01:04:35;66.80;;;25.25;;
53618;SDS011;39505;53.040;18.488;2023-02-28T01:04:48;65.75;;;25.73;;
53618;SDS011;39505;53.040;18.488;2023-02-28T01:05:01;65.82;;;26.23;;
53618;SDS011;39505;53.040;18.488;2023-02-28T01:05:15;65.20;;;25.75;;
53618;SDS011;39505;53.040;18.488;2023-02-28T01:05:27;61.65;;;25.30;;
53618;SDS011;39505;53.040;18.488;2023-02-28T01:05:40;63.53;;;25.20;;
53618;SDS011;39505;53.040;18.488;2023-02-28T01:05:53;63.97;;;25.30;;
53618;SDS011;39505;53.040;18.488;2023-02-28T01:06:07;65.68;;;26.48;;
53618;SDS011;39505;53.040;18.488;2023-02-28T01:06:20;66.53;;;27.05;;
53618;SDS011;39505;53.040;18.488;2023-02-28T01:06:33;66.20;;;27.08;;
53618;SDS011;39505;53.040;18.488;2023-02-28T01:06:46;65.45;;;26.95;;
53618;SDS011;39505;53.040;18.488;2023-02-28T01:06:59;63.67;;;26.17;;
53618;SDS011;39505;53.040;18.488;2023-02-28T01:07:12;65.45;;;25.88;;
53618;SDS011;39505;53.040;18.488;2023-02-28T01:07:26;68.93;;;26.40;;
53618;SDS011;39505;53.040;18.488;2023-02-28T01:07:39;67.63;;;26.60;;
53618;SDS011;39505;53.040;18.488;2023-02-28T01:07:52;64.57;;;26.67;;
53618;SDS011;39505;53.040;18.488;2023-02-28T01:08:04;65.00;;;27.40;;
53618;SDS011;39505;53.040;18.488;2023-02-28T01:08:18;68.20;;;26.70;;
53618;SDS011;39505;53.040;18.488;2023-02-28T01:08:31;67.03;;;25.92;;
53618;SDS011;39505;53.040;18.488;2023-02-28T01:08:44;69.70;;;27.05;;
53618;SDS011;39505;53.040;18.488;2023-02-28T01:08:56;70.90;;;27.13;;
53618;SDS011;39505;53.040;18.488;2023-02-28T01:09:10;67.50;;;25.98;;
53618;SDS011;39505;53.040;18.488;2023-02-28T01:09:23;65.20;;;25.50;;
53618;SDS011;39505;53.040;18.488;2023-02-28T01:09:36;65.13;;;25.83;;
53618;SDS011;39505;53.040;18.488;2023-02-28T01:09:49;69.13;;;26.42;;
53618;SDS011;39505;53.040;18.488;2023-02-28T01:10:02;70.78;;;25.98;;
53618;SDS011;39505;53.040;18.488;2023-02-28T01:10:15;64.40;;;25.70;;
53618;SDS011;39505;53.040;18.488;2023-02-28T01:10:29;62.78;;;25.63;;
53618;SDS011;39505;53.040;18.488;2023-02-28T01:10:43;67.40;;;25.45;;
53618;SDS011;39505;53.040;18.488;2023-02-28T01:10:56;68.18;;;25.45;;
53618;SDS011;39505;53.040;18.488;2023-02-28T01:11:09;67.15;;;25.75;;
53618;SDS011;39505;53.040;18.488;2023-02-28T01:11:24;68.25;;;25.70;;
53618;SDS011;39505;53.040;18.488;2023-02-28T01:11:37;70.63;;;25.58;;
53618;SDS011;39505;53.040;18.488;2023-02-28T01:11:51;68.72;;;25.73;;
53618;SDS011;39505;53.040;18.488;2023-02-28T01:12:05;70.63;;;26.50;;
53618;SDS011;39505;53.040;18.488;2023-02-28T01:12:20;70.22;;;26.38;;
53618;SDS011;39505;53.040;18.488;2023-02-28T01:12:33;66.10;;;25.50;;
53618;SDS011;39505;53.040;18.488;2023-02-28T01:12:46;65.18;;;25.52;;
53618;SDS011;39505;53.040;18.488;2023-02-28T01:12:58;66.78;;;26.52;;
53618;SDS011;39505;53.040;18.488;2023-02-28T01:13:11;67.05;;;26.55;;
53618;SDS011;39505;53.040;18.488;2023-02-28T01:13:24;68.80;;;26.70;;
53618;SDS011;39505;53.040;18.488;2023-02-28T01:13:38;67.25;;;26.13;;
53618;SDS011;39505;53.040;18.488;2023-02-28T01:13:51;67.57;;;26.38;;
53618;SDS011;39505;53.040;18.488;2023-02-28T01:14:04;67.63;;;26.63;;
53618;SDS011;39505;53.040;18.488;2023-02-28T01:14:17;67.32;;;25.98;;
53618;SDS011;39505;53.040;18.488;2023-02-28T01:14:30;63.47;;;25.42;;
53618;SDS011;39505;53.040;18.488;2023-02-28T01:14:43;63.13;;;25.92;;
53618;SDS011;39505;53.040;18.488;2023-02-28T01:14:57;67.38;;;26.42;;
53618;SDS011;39505;53.040;18.488;2023-02-28T01:15:10;71.45;;;27.13;;
53618;SDS011;39505;53.040;18.488;2023-02-28T01:15:23;75.70;;;27.17;;
53618;SDS011;39505;53.040;18.488;2023-02-28T01:15:36;77.78;;;26.83;;
53618;SDS011;39505;53.040;18.488;2023-02-28T01:15:50;74.18;;;26.88;;
53618;SDS011;39505;53.040;18.488;2023-02-28T01:16:04;69.93;;;26.48;;
53618;SDS011;39505;53.040;18.488;2023-02-28T01:16:19;74.47;;;26.75;;
53618;SDS011;39505;53.040;18.488;2023-02-28T01:16:32;79.03;;;27.13;;
53618;SDS011;39505;53.040;18.488;2023-02-28T01:16:45;79.13;;;26.83;;
53618;SDS011;39505;53.040;18.488;2023-02-28T01:16:58;74.88;;;27.27;;